Time;durP1;ratioP1;P1;durP2;ratioP2;P2;SDS_P1;SDS_P2;PMS_P1;PMS_P2;Temp;Humidity;BMP_temperature;BMP_pressure;BME280_temperature;BME280_humidity;BME280_pressure;Samples;Min_cycle;Max_cycle;Signal;HPM_P1;HPM_P2
2022/07/24 00:00:46;;;;;;;7.95;6.80;;;;;;;21.57;100.00;99547.75;5031728;28;20248;-79
2022/07/24 00:03:12;;;;;;;6.88;6.28;;;;;;;21.53;100.00;99547.53;5027301;28;20250;-79
2022/07/24 00:05:39;;;;;;;7.30;6.70;;;;;;;21.44;100.00;99549.31;5026907;28;20235;-79
2022/07/24 00:08:06;;;;;;;7.35;6.75;;;;;;;21.37;100.00;99542.59;5025135;28;20336;-79
2022/07/24 00:10:33;;;;;;;6.88;6.28;;;;;;;21.36;100.00;99544.50;5029756;28;20412;-80
2022/07/24 00:12:59;;;;;;;7.05;6.35;;;;;;;21.38;100.00;99546.91;5030374;28;20317;-79
2022/07/24 00:15:26;;;;;;;6.85;6.22;;;;;;;21.35;100.00;99544.78;5029678;28;20313;-78
2022/07/24 00:17:53;;;;;;;7.25;6.65;;;;;;;21.30;100.00;99539.41;5029270;28;20716;-79
2022/07/24 00:20:19;;;;;;;7.13;6.50;;;;;;;21.32;100.00;99548.09;5026254;28;20240;-80
2022/07/24 00:22:46;;;;;;;7.07;6.40;;;;;;;21.31;100.00;99547.28;5029726;28;20637;-79
2022/07/24 00:25:12;;;;;;;7.28;6.57;;;;;;;21.31;100.00;99550.03;5032005;28;20230;-79
2022/07/24 00:27:39;;;;;;;7.53;6.68;;;;;;;21.32;100.00;99546.16;5034773;28;20321;-80
2022/07/24 00:30:06;;;;;;;6.95;6.28;;;;;;;21.34;100.00;99548.59;5025896;28;20241;-80
2022/07/24 00:32:33;;;;;;;6.75;6.15;;;;;;;21.30;100.00;99539.41;5026072;28;20801;-79
2022/07/24 00:35:00;;;;;;;7.45;6.85;;;;;;;21.33;100.00;99539.63;5027047;28;20245;-78
2022/07/24 00:37:27;;;;;;;7.35;6.75;;;;;;;21.32;100.00;99538.00;5028036;28;20696;-79
2022/07/24 00:39:53;;;;;;;7.05;6.45;;;;;;;21.31;100.00;99532.84;5028867;28;20230;-78
2022/07/24 00:42:20;;;;;;;7.20;6.60;;;;;;;21.32;100.00;99539.94;5029995;28;22954;-79
2022/07/24 00:44:47;;;;;;;7.50;6.80;;;;;;;21.28;100.00;99542.41;5048763;28;20316;-79
2022/07/24 00:47:15;;;;;;;7.88;6.90;;;;;;;21.25;100.00;99540.28;5047953;28;20296;-78
2022/07/24 00:49:41;;;;;;;7.20;6.60;;;;;;;21.23;100.00;99547.91;5043847;28;20226;-79
2022/07/24 00:52:08;;;;;;;7.35;6.63;;;;;;;21.21;100.00;99541.97;5051055;28;20236;-78
2022/07/24 00:54:35;;;;;;;7.25;6.75;;;;;;;21.22;100.00;99551.78;5048715;28;20224;-79
2022/07/24 00:57:01;;;;;;;7.32;6.65;;;;;;;21.25;100.00;99542.19;5051451;28;20238;-79
2022/07/24 00:59:28;;;;;;;6.60;6.00;;;;;;;21.22;100.00;99553.69;5044790;28;20283;-79
2022/07/24 01:01:55;;;;;;;7.05;6.55;;;;;;;21.22;100.00;99553.69;5045629;28;20241;-79
2022/07/24 01:04:22;;;;;;;7.88;7.13;;;;;;;21.17;100.00;99548.28;5051370;28;20244;-79
2022/07/24 01:06:49;;;;;;;7.97;7.28;;;;;;;21.14;100.00;99557.06;5047414;28;20230;-78
2022/07/24 01:09:16;;;;;;;7.60;6.90;;;;;;;21.10;100.00;99556.75;5045807;28;20268;-79
2022/07/24 01:11:43;;;;;;;7.68;6.97;;;;;;;21.04;100.00;99549.78;5048332;28;20815;-79
2022/07/24 01:14:12;;;;;;;8.10;7.45;;;;;;;21.01;100.00;99556.59;5043800;28;20264;-80
2022/07/24 01:16:39;;;;;;;7.85;7.15;;;;;;;20.95;100.00;99562.41;5043194;28;20225;-79
2022/07/24 01:19:06;;;;;;;7.82;7.22;;;;;;;20.90;100.00;99567.91;5060449;28;20653;-80
2022/07/24 01:21:33;;;;;;;7.93;7.22;;;;;;;20.83;100.00;99568.22;5050157;28;20636;-80
2022/07/24 01:24:00;;;;;;;7.13;6.60;;;;;;;20.84;100.00;99569.88;5047421;28;20740;-80
2022/07/24 01:26:27;;;;;;;7.88;7.28;;;;;;;20.84;100.00;99571.78;5044469;28;20259;-80
2022/07/24 01:28:54;;;;;;;7.22;6.63;;;;;;;20.80;100.00;99574.28;5043316;28;20261;-80
2022/07/24 01:31:20;;;;;;;7.60;7.05;;;;;;;20.75;100.00;99570.78;5048119;28;20257;-79
2022/07/24 01:33:47;;;;;;;8.30;7.50;;;;;;;20.72;100.00;99569.44;5045228;28;20249;-79
2022/07/24 01:36:14;;;;;;;8.02;7.32;;;;;;;20.68;100.00;99571.09;5050272;28;20272;-79
2022/07/24 01:38:41;;;;;;;7.72;7.07;;;;;;;20.67;100.00;99574.91;5046954;28;20363;-80
2022/07/24 01:41:07;;;;;;;7.82;7.15;;;;;;;20.63;100.00;99568.44;5050623;28;20667;-79
2022/07/24 01:43:34;;;;;;;8.15;7.50;;;;;;;20.62;100.00;99573.06;5044004;28;20226;-78
2022/07/24 01:46:01;;;;;;;7.47;6.88;;;;;;;20.55;100.00;99567.16;5042003;28;20321;-78
2022/07/24 01:48:28;;;;;;;8.07;7.38;;;;;;;20.48;100.00;99558.50;5045094;28;20320;-79
2022/07/24 01:50:55;;;;;;;8.18;7.57;;;;;;;20.45;100.00;99567.22;5047268;28;20283;-80
2022/07/24 01:53:21;;;;;;;8.32;7.63;;;;;;;20.38;100.00;99555.88;5050612;28;20235;-79
2022/07/24 01:55:52;;;;;;;7.70;7.00;;;;;;;20.37;100.00;99556.16;5050267;28;20225;-80
2022/07/24 01:58:18;;;;;;;8.05;7.35;;;;;;;20.37;100.00;99548.00;5049780;28;20237;-79
2022/07/24 02:00:49;;;;;;;7.93;7.32;;;;;;;20.32;100.00;99559.75;5047683;28;20233;-78
2022/07/24 02:03:16;;;;;;;8.10;7.40;;;;;;;20.27;100.00;99554.31;5050451;28;20299;-78
2022/07/24 02:05:42;;;;;;;8.10;7.50;;;;;;;20.25;100.00;99563.84;5044085;28;20229;-79
2022/07/24 02:08:09;;;;;;;7.97;7.38;;;;;;;20.20;100.00;99562.78;5046712;28;20240;-79
2022/07/24 02:10:36;;;;;;;7.88;7.18;;;;;;;20.15;100.00;99554.69;5049293;28;20510;-79
2022/07/24 02:13:02;;;;;;;8.43;7.68;;;;;;;20.12;100.00;99544.34;5044890;28;20232;-79
2022/07/24 02:15:32;;;;;;;8.73;8.03;;;;;;;20.07;100.00;99547.09;5051696;28;20225;-79
2022/07/24 02:18:01;;;;;;;8.13;7.43;;;;;;;20.06;100.00;99555.56;5048572;28;20236;-79
2022/07/24 02:20:28;;;;;;;8.55;7.85;;;;;;;20.02;100.00;99562.66;5048588;28;20240;-79
2022/07/24 02:22:55;;;;;;;8.80;8.00;;;;;;;20.01;100.00;99564.59;5046395;28;20280;-79
2022/07/24 02:25:22;;;;;;;8.32;7.65;;;;;;;19.98;100.00;99561.59;5048686;28;20319;-80
2022/07/24 02:27:48;;;;;;;8.20;7.50;;;;;;;19.93;100.00;99558.91;5047381;28;20312;-80
2022/07/24 02:30:17;;;;;;;7.93;7.32;;;;;;;19.92;100.00;99557.31;5048169;28;20236;-79
2022/07/24 02:32:44;;;;;;;8.53;7.73;;;;;;;19.92;100.00;99560.03;5045096;28;20227;-79
2022/07/24 02:35:11;;;;;;;8.77;7.95;;;;;;;19.90;100.00;99556.75;5048116;28;20355;-80
2022/07/24 02:37:40;;;;;;;8.37;7.63;;;;;;;19.84;100.00;99557.88;5050117;28;20327;-80
2022/07/24 02:40:10;;;;;;;8.20;7.60;;;;;;;19.85;100.00;99564.94;5050406;28;20240;-79
2022/07/24 02:42:38;;;;;;;8.90;7.80;;;;;;;19.83;100.00;99562.50;5054408;28;20236;-79
2022/07/24 02:45:06;;;;;;;8.00;7.30;;;;;;;19.81;100.00;99564.69;5050068;28;20237;-79
2022/07/24 02:47:32;;;;;;;8.50;7.80;;;;;;;19.80;100.00;99565.78;5051368;28;20346;-80
2022/07/24 02:49:59;;;;;;;8.20;7.50;;;;;;;19.74;100.00;99567.72;5052257;28;20251;-79
2022/07/24 02:52:26;;;;;;;8.03;7.43;;;;;;;19.75;100.00;99563.91;5052302;28;20252;-79
2022/07/24 02:54:52;;;;;;;8.23;7.53;;;;;;;19.78;100.00;99563.34;5050986;28;20725;-79
2022/07/24 02:57:19;;;;;;;7.57;6.87;;;;;;;19.75;100.00;99572.06;5050818;28;20239;-78
2022/07/24 02:59:49;;;;;;;7.87;7.27;;;;;;;19.79;100.00;99572.31;5050321;28;20257;-79
2022/07/24 03:02:16;;;;;;;7.03;6.50;;;;;;;19.87;100.00;99569.03;5049946;28;20247;-79
2022/07/24 03:04:43;;;;;;;6.60;5.87;;;;;;;20.00;100.00;99573.81;5052281;28;20346;-79
2022/07/24 03:07:10;;;;;;;7.30;6.70;;;;;;;20.02;100.00;99576.25;5050789;28;20815;-80
2022/07/24 03:09:36;;;;;;;7.20;6.60;;;;;;;20.08;100.00;99580.56;5051047;28;20323;-81
2022/07/24 03:12:03;;;;;;;7.23;6.50;;;;;;;20.09;100.00;99579.47;5050159;28;20225;-79
2022/07/24 03:14:30;;;;;;;6.60;6.00;;;;;;;20.16;100.00;99583.50;5052201;28;20328;-80
2022/07/24 03:16:57;;;;;;;7.67;6.87;;;;;;;20.23;100.00;99581.28;5051177;28;20238;-79
2022/07/24 03:19:23;;;;;;;7.47;6.77;;;;;;;20.24;100.00;99587.53;5050676;28;20241;-80
2022/07/24 03:21:50;;;;;;;7.03;6.53;;;;;;;20.20;100.00;99587.25;5052230;28;20230;-79
2022/07/24 03:24:17;;;;;;;7.00;6.50;;;;;;;20.23;100.00;99594.88;5050093;28;20244;-78
2022/07/24 03:26:43;;;;;;;6.83;6.33;;;;;;;20.25;100.00;99594.56;5050295;28;20323;-79
2022/07/24 03:29:10;;;;;;;7.07;6.53;;;;;;;20.25;100.00;99601.94;5050473;28;20326;-79
2022/07/24 03:31:36;;;;;;;7.47;6.83;;;;;;;20.29;100.00;99597.56;5046473;28;20316;-79
2022/07/24 03:34:03;;;;;;;8.40;7.50;;;;;;;20.37;100.00;99610.56;5049738;28;20228;-80
2022/07/24 03:36:30;;;;;;;8.50;7.80;;;;;;;20.38;100.00;99606.75;5050313;28;20246;-80
2022/07/24 03:38:56;;;;;;;8.37;7.63;;;;;;;20.40;100.00;99607.28;5049459;28;20237;-78
2022/07/24 03:41:23;;;;;;;8.67;7.90;;;;;;;20.42;100.00;99614.06;5052423;28;20654;-79
2022/07/24 03:43:50;;;;;;;8.60;7.97;;;;;;;20.46;100.00;99623.28;5050184;28;20231;-79
2022/07/24 03:46:17;;;;;;;9.23;8.50;;;;;;;20.57;100.00;99627.56;5030163;28;20324;-80
2022/07/24 03:48:43;;;;;;;9.47;8.67;;;;;;;20.83;100.00;99619.97;5050978;28;20718;-79
2022/07/24 03:51:10;;;;;;;9.23;8.33;;;;;;;20.94;100.00;99628.88;5051136;28;20323;-81
2022/07/24 03:53:37;;;;;;;9.20;8.50;;;;;;;21.10;100.00;99631.13;5053054;28;20308;-79
2022/07/24 03:56:09;;;;;;;9.60;8.90;;;;;;;21.14;100.00;99634.13;5049014;28;20225;-80
2022/07/24 03:58:36;;;;;;;9.17;8.37;;;;;;;21.20;100.00;99638.41;5055242;28;20684;-79
2022/07/24 04:01:06;;;;;;;9.70;8.90;;;;;;;21.23;100.00;99635.09;5048257;28;20237;-79
2022/07/24 04:03:33;;;;;;;9.40;8.60;;;;;;;21.32;100.00;99636.09;5051436;28;20238;-79
2022/07/24 04:06:01;;;;;;;9.37;8.57;;;;;;;21.43;100.00;99640.34;5052292;28;20255;-79
2022/07/24 04:08:27;;;;;;;9.10;8.50;;;;;;;21.47;100.00;99638.66;5047964;28;20259;-81
2022/07/24 04:10:56;;;;;;;9.57;8.87;;;;;;;21.56;100.00;99640.75;5052191;28;20320;-80
2022/07/24 04:13:25;;;;;;;9.15;8.45;;;;;;;21.76;100.00;99652.19;5052210;28;20237;-79
2022/07/24 04:15:52;;;;;;;9.65;8.88;;;;;;;21.95;100.00;99654.97;5052238;28;20239;-79
2022/07/24 04:18:19;;;;;;;9.02;8.30;;;;;;;22.01;100.00;99659.28;5051673;28;20366;-79
2022/07/24 04:20:46;;;;;;;9.30;8.50;;;;;;;22.02;100.00;99657.34;5051050;28;20323;-80
2022/07/24 04:23:13;;;;;;;9.60;8.73;;;;;;;22.08;100.00;99661.63;5045114;28;20603;-78
2022/07/24 04:25:40;;;;;;;9.38;8.68;;;;;;;22.04;100.00;99672.31;5052323;28;20316;-79
2022/07/24 04:28:07;;;;;;;9.45;8.65;;;;;;;22.09;100.00;99677.69;5044629;28;20269;-80
2022/07/24 04:30:34;;;;;;;9.77;8.88;;;;;;;22.19;100.00;99679.47;5052203;28;20730;-79
2022/07/24 04:33:00;;;;;;;9.25;8.55;;;;;;;22.18;100.00;99675.94;5052263;28;20264;-79
2022/07/24 04:35:27;;;;;;;9.45;8.73;;;;;;;22.38;100.00;99685.75;5050361;28;20692;-78
2022/07/24 04:37:53;;;;;;;9.10;8.30;;;;;;;22.39;100.00;99688.19;5051867;28;20232;-80
2022/07/24 04:40:20;;;;;;;9.45;8.50;;;;;;;22.44;100.00;99689.22;5051250;28;20987;-79
2022/07/24 04:42:47;;;;;;;8.63;8.02;;;;;;;22.50;100.00;99694.28;5051824;28;20710;-79
2022/07/24 04:45:13;;;;;;;9.23;8.50;;;;;;;22.66;100.00;99687.50;5051156;28;20233;-80
2022/07/24 04:47:40;;;;;;;8.55;7.95;;;;;;;22.71;100.00;99698.38;5046358;28;20388;-81
2022/07/24 04:50:07;;;;;;;9.13;8.43;;;;;;;22.78;100.00;99693.34;5050691;28;20329;-83
2022/07/24 04:52:34;;;;;;;8.98;8.27;;;;;;;22.94;100.00;99704.81;5035538;28;20801;-80
2022/07/24 04:55:01;;;;;;;9.23;8.52;;;;;;;23.03;100.00;99713.16;5046170;28;20253;-79
2022/07/24 04:57:27;;;;;;;9.38;8.55;;;;;;;23.13;100.00;99713.78;5043064;28;20601;-79
2022/07/24 04:59:54;;;;;;;8.73;8.13;;;;;;;23.34;100.00;99710.66;5050553;28;20308;-79
2022/07/24 05:02:20;;;;;;;9.63;8.82;;;;;;;23.50;100.00;99715.59;5044872;28;20225;-79
2022/07/24 05:04:47;;;;;;;9.38;8.68;;;;;;;23.54;100.00;99715.81;5039887;28;20305;-79
2022/07/24 05:07:14;;;;;;;8.63;7.93;;;;;;;23.65;100.00;99719.97;5047171;28;20231;-79
2022/07/24 05:09:40;;;;;;;8.82;8.13;;;;;;;23.59;100.00;99707.50;5043923;28;20232;-79
2022/07/24 05:12:07;;;;;;;9.30;8.50;;;;;;;23.62;100.00;99712.34;5048200;28;20319;-79
2022/07/24 05:14:34;;;;;;;9.05;8.25;;;;;;;23.71;100.00;99724.19;5043543;28;20324;-80
2022/07/24 05:17:00;;;;;;;9.38;8.55;;;;;;;23.77;100.00;99717.53;5047916;28;20241;-80
2022/07/24 05:19:27;;;;;;;9.30;8.60;;;;;;;23.94;100.00;99719.63;5046697;28;20266;-81
2022/07/24 05:21:54;;;;;;;8.60;7.97;;;;;;;23.95;100.00;99715.78;5051082;28;20312;-79
2022/07/24 05:24:20;;;;;;;9.50;8.80;;;;;;;23.91;100.00;99721.06;5039338;28;20240;-79
2022/07/24 05:26:47;;;;;;;8.77;8.07;;;;;;;23.91;100.00;99728.47;5045336;28;20322;-79
2022/07/24 05:29:16;;;;;;;8.93;8.23;;;;;;;23.89;100.00;99727.97;5040174;28;20254;-79
2022/07/24 05:31:43;;;;;;;9.05;8.35;;;;;;;23.88;100.00;99731.81;5047900;28;20232;-79
2022/07/24 05:34:10;;;;;;;8.85;8.15;;;;;;;23.87;100.00;99725.53;5050371;28;20274;-81
2022/07/24 05:36:37;;;;;;;8.40;7.70;;;;;;;23.92;100.00;99730.91;5041661;28;20237;-79
2022/07/24 05:39:04;;;;;;;8.73;7.93;;;;;;;23.86;100.00;99734.03;5040946;28;20230;-79
2022/07/24 05:41:31;;;;;;;9.40;8.60;;;;;;;23.84;100.00;99742.56;5043787;28;20597;-79
2022/07/24 05:43:58;;;;;;;8.57;7.88;;;;;;;23.88;100.00;99737.28;5045417;28;20319;-79
2022/07/24 05:46:24;;;;;;;8.68;7.97;;;;;;;23.79;100.00;99733.66;5048511;28;20225;-80
2022/07/24 05:48:51;;;;;;;8.57;7.80;;;;;;;23.91;100.00;99737.50;5046397;28;20221;-79
2022/07/24 05:51:18;;;;;;;8.32;7.63;;;;;;;23.97;100.00;99741.75;5052747;28;20255;-79
2022/07/24 05:53:44;;;;;;;7.45;6.85;;;;;;;24.13;100.00;99742.22;5048475;28;20789;-79
2022/07/24 05:56:11;;;;;;;8.35;7.70;;;;;;;24.10;100.00;99734.63;5043704;28;20234;-82
2022/07/24 05:58:38;;;;;;;7.60;7.07;;;;;;;24.18;99.01;99731.19;5040104;28;20658;-79
2022/07/24 06:01:04;;;;;;;7.97;7.28;;;;;;;24.51;95.50;99735.38;5039128;28;20243;-78
2022/07/24 06:03:31;;;;;;;7.20;6.65;;;;;;;24.60;91.92;99735.47;5050254;28;20821;-79
2022/07/24 06:05:58;;;;;;;7.57;6.97;;;;;;;24.48;94.62;99727.00;5037268;28;20338;-78
2022/07/24 06:08:24;;;;;;;7.63;7.00;;;;;;;24.37;95.82;99722.84;5045187;28;20324;-79
2022/07/24 06:10:51;;;;;;;7.00;6.45;;;;;;;24.58;93.53;99720.47;5038855;28;20322;-79
2022/07/24 06:13:18;;;;;;;7.30;6.72;;;;;;;24.60;93.41;99721.75;5052882;28;20331;-79
2022/07/24 06:15:45;;;;;;;7.25;6.68;;;;;;;24.78;84.09;99717.22;5040074;28;20236;-79
2022/07/24 06:18:12;;;;;;;7.30;6.70;;;;;;;25.02;84.64;99725.97;5043388;28;20336;-81
2022/07/24 06:20:38;;;;;;;7.18;6.68;;;;;;;25.16;82.21;99726.72;5039083;28;20228;-79
2022/07/24 06:23:05;;;;;;;6.50;6.00;;;;;;;25.13;75.96;99730.09;5041672;28;20319;-79
2022/07/24 06:25:32;;;;;;;7.10;6.50;;;;;;;25.42;72.92;99726.88;5040365;28;20885;-79
2022/07/24 06:27:58;;;;;;;6.55;6.05;;;;;;;25.39;72.65;99722.81;5042124;28;20328;-79
2022/07/24 06:30:26;;;;;;;6.57;6.03;;;;;;;25.35;73.34;99727.31;5049189;28;21321;-79
2022/07/24 06:32:55;;;;;;;6.57;5.97;;;;;;;25.36;70.58;99728.13;5038869;28;20262;-80
2022/07/24 06:35:22;;;;;;;6.63;6.07;;;;;;;25.38;71.99;99729.41;5052797;28;20322;-79
2022/07/24 06:37:48;;;;;;;6.75;6.22;;;;;;;25.39;72.05;99738.44;5043639;28;20265;-79
2022/07/24 06:40:16;;;;;;;7.22;6.65;;;;;;;25.51;69.86;99732.41;5047376;28;20729;-79
2022/07/24 06:42:44;;;;;;;6.85;6.25;;;;;;;25.45;70.32;99737.19;5045686;28;20247;-79
2022/07/24 06:45:11;;;;;;;6.10;5.70;;;;;;;25.52;68.74;99734.03;5041436;28;20240;-79
2022/07/24 06:47:38;;;;;;;6.68;6.07;;;;;;;25.56;68.98;99733.09;5045414;28;20312;-79
2022/07/24 06:50:05;;;;;;;6.65;6.03;;;;;;;25.55;71.66;99739.72;5050395;28;20328;-79
2022/07/24 06:52:32;;;;;;;6.93;6.43;;;;;;;25.46;71.33;99736.09;5044457;28;20318;-78
2022/07/24 06:54:59;;;;;;;6.53;5.93;;;;;;;25.45;71.39;99750.91;5044626;28;20312;-79
2022/07/24 06:57:25;;;;;;;6.70;6.20;;;;;;;25.49;69.67;99748.34;5044148;28;20233;-79
2022/07/24 06:59:52;;;;;;;6.13;5.70;;;;;;;25.66;69.06;99743.78;5046304;28;20245;-79
2022/07/24 07:02:20;;;;;;;7.05;6.32;;;;;;;25.90;69.18;99745.34;5050711;28;20234;-80
2022/07/24 07:04:47;;;;;;;6.88;6.28;;;;;;;26.07;67.20;99735.22;5042993;28;20225;-81
2022/07/24 07:07:15;;;;;;;6.38;5.88;;;;;;;26.14;66.89;99735.53;5041317;28;20236;-80
2022/07/24 07:09:42;;;;;;;6.40;5.90;;;;;;;26.05;61.20;99739.38;5043169;28;20234;-80
2022/07/24 07:12:09;;;;;;;6.63;6.00;;;;;;;26.31;59.49;99729.31;5043977;28;20260;-80
2022/07/24 07:14:37;;;;;;;6.47;5.80;;;;;;;26.42;60.07;99738.03;5047225;28;20257;-80
2022/07/24 07:17:03;;;;;;;6.20;5.80;;;;;;;26.22;61.01;99725.75;5046431;28;20318;-79
2022/07/24 07:19:30;;;;;;;5.95;5.55;;;;;;;26.60;59.97;99734.16;5045279;28;20392;-80
2022/07/24 07:21:58;;;;;;;6.07;5.57;;;;;;;26.71;57.76;99736.28;5044951;28;20327;-80
2022/07/24 07:24:24;;;;;;;6.28;5.68;;;;;;;26.87;57.55;99739.38;5050628;28;20236;-79
2022/07/24 07:26:51;;;;;;;5.95;5.45;;;;;;;27.05;55.05;99729.19;5049874;28;20231;-79
2022/07/24 07:29:18;;;;;;;5.97;5.40;;;;;;;27.07;54.99;99740.63;5048447;28;20332;-81
2022/07/24 07:31:44;;;;;;;5.35;4.95;;;;;;;26.83;49.54;99738.38;5050308;28;20260;-80
2022/07/24 07:34:11;;;;;;;5.28;4.88;;;;;;;26.98;49.99;99742.59;5045676;28;20265;-79
2022/07/24 07:36:38;;;;;;;5.35;4.95;;;;;;;26.79;50.27;99736.59;5047609;28;20323;-80
2022/07/24 07:39:05;;;;;;;5.60;5.00;;;;;;;26.82;50.33;99735.97;5049148;28;20870;-80
2022/07/24 07:41:32;;;;;;;5.70;5.30;;;;;;;26.79;49.92;99731.91;5048859;28;20240;-79
2022/07/24 07:43:59;;;;;;;5.47;5.03;;;;;;;26.87;49.80;99733.88;5050237;28;20287;-79
2022/07/24 07:46:25;;;;;;;6.13;4.80;;;;;;;27.03;49.10;99731.44;5048063;28;20660;-79
2022/07/24 07:48:53;;;;;;;5.15;4.78;;;;;;;27.04;49.47;99735.81;5049021;28;20256;-80
2022/07/24 07:51:20;;;;;;;5.70;5.30;;;;;;;27.26;49.28;99743.03;5046875;28;20236;-80
2022/07/24 07:53:50;;;;;;;5.75;5.35;;;;;;;27.14;49.55;99732.72;5048887;28;20268;-79
2022/07/24 07:56:16;;;;;;;4.57;4.28;;;;;;;27.43;49.71;99745.75;5050490;28;20752;-80
2022/07/24 07:58:43;;;;;;;5.22;4.72;;;;;;;27.59;50.26;99747.66;5048687;28;20308;-81
2022/07/24 08:01:10;;;;;;;6.30;4.80;;;;;;;27.69;47.38;99737.44;5054562;28;20328;-81
2022/07/24 08:03:37;;;;;;;5.10;4.70;;;;;;;27.82;46.18;99747.41;5048505;28;20248;-82
2022/07/24 08:06:06;;;;;;;4.70;4.30;;;;;;;27.80;45.28;99747.75;5049148;28;20325;-79
2022/07/24 08:08:41;;;;;;;5.38;4.97;;;;;;;27.83;44.09;99736.06;5048068;28;20244;-80
2022/07/24 08:11:08;;;;;;;5.38;4.97;;;;;;;27.90;43.94;99732.81;5051105;28;20248;-80
2022/07/24 08:13:34;;;;;;;5.20;4.70;;;;;;;27.88;46.57;99741.38;5049325;28;20728;-79
2022/07/24 08:16:01;;;;;;;4.93;4.53;;;;;;;28.12;45.04;99740.00;5049130;28;20260;-79
2022/07/24 08:18:28;;;;;;;5.00;4.60;;;;;;;28.00;43.94;99741.47;5048532;28;20317;-79
2022/07/24 08:20:55;;;;;;;4.90;4.50;;;;;;;28.11;41.49;99735.63;5049415;28;20301;-79
2022/07/24 08:23:21;;;;;;;4.40;3.85;;;;;;;28.15;39.21;99742.06;5046408;28;20328;-81
2022/07/24 08:25:48;;;;;;;4.20;3.90;;;;;;;28.04;38.98;99745.19;5053089;28;20317;-80
2022/07/24 08:28:15;;;;;;;5.65;4.00;;;;;;;27.76;38.50;99744.03;5048866;28;20239;-80
2022/07/24 08:30:41;;;;;;;4.20;3.90;;;;;;;27.44;39.42;99747.34;5047918;28;20325;-81
2022/07/24 08:33:08;;;;;;;4.20;3.90;;;;;;;27.29;40.67;99737.69;5050549;28;20233;-79
2022/07/24 08:35:35;;;;;;;5.45;4.13;;;;;;;27.56;40.29;99744.75;5031116;28;20226;-79
2022/07/24 08:38:02;;;;;;;4.47;4.10;;;;;;;27.86;39.91;99740.91;5032612;28;20237;-79
2022/07/24 08:40:34;;;;;;;4.10;3.80;;;;;;;27.98;40.13;99730.00;5049338;28;20263;-80
2022/07/24 08:43:05;;;;;;;4.40;4.05;;;;;;;28.27;40.79;99747.69;5051607;28;20383;-80
2022/07/24 08:45:35;;;;;;;4.38;4.05;;;;;;;28.11;39.50;99738.38;5051204;28;20240;-80
2022/07/24 08:48:06;;;;;;;4.30;3.90;;;;;;;28.17;38.46;99735.09;5016714;28;20269;-79
2022/07/24 08:50:34;;;;;;;4.60;4.20;;;;;;;28.29;38.26;99739.88;5055591;28;20233;-80
2022/07/24 08:53:02;;;;;;;4.30;3.90;;;;;;;28.17;37.49;99739.81;5059755;28;20301;-80
2022/07/24 08:55:29;;;;;;;3.90;3.60;;;;;;;28.18;35.27;99739.47;5052129;28;20249;-80
2022/07/24 08:57:59;;;;;;;3.70;3.42;;;;;;;28.23;35.65;99738.47;5049910;28;20244;-79
2022/07/24 09:00:28;;;;;;;3.92;3.63;;;;;;;28.29;36.15;99737.13;5047646;28;20298;-81
2022/07/24 09:02:54;;;;;;;4.82;4.05;;;;;;;28.27;35.07;99740.22;5050037;28;20257;-80
2022/07/24 09:05:21;;;;;;;3.70;3.40;;;;;;;28.34;34.95;99736.94;5051202;28;20332;-82
2022/07/24 09:08:06;;;;;;;4.75;3.40;;;;;;;28.54;34.00;99743.59;5031204;28;20222;-80
2022/07/24 09:10:33;;;;;;;3.85;3.55;;;;;;;28.58;34.32;99744.53;5037398;28;20234;-81
2022/07/24 09:13:13;;;;;;;3.80;3.50;;;;;;;28.45;34.67;99741.72;5045146;28;20316;-80
2022/07/24 09:15:45;;;;;;;3.92;3.60;;;;;;;28.63;34.41;99728.63;5042843;28;20225;-78
2022/07/24 09:18:34;;;;;;;4.07;3.40;;;;;;;28.81;32.87;99748.59;5050144;28;20225;-78
2022/07/24 09:21:18;;;;;;;3.78;3.47;;;;;;;28.65;32.51;99742.84;5051993;28;20233;-79
2022/07/24 09:23:45;;;;;;;3.60;3.30;;;;;;;28.72;33.24;99743.16;5050872;28;20735;-80
2022/07/24 09:26:12;;;;;;;3.53;3.22;;;;;;;28.82;34.25;99747.47;5050237;28;20332;-79
2022/07/24 09:28:52;;;;;;;3.97;3.67;;;;;;;28.74;34.43;99743.63;5053200;28;20229;-78
2022/07/24 09:31:22;;;;;;;4.00;3.70;;;;;;;28.76;33.72;99741.34;5046449;28;20225;-79
2022/07/24 09:33:49;;;;;;;4.13;3.70;;;;;;;28.68;34.19;99749.66;5033180;28;20229;-82
2022/07/24 09:36:18;;;;;;;3.65;3.45;;;;;;;28.80;34.44;99742.28;5033708;28;20260;-81
2022/07/24 09:38:51;;;;;;;4.10;3.80;;;;;;;28.73;35.18;99744.78;5030554;28;20264;-82
2022/07/24 09:41:22;;;;;;;3.72;3.42;;;;;;;28.81;34.13;99737.56;5043587;28;20222;-81
2022/07/24 09:44:00;;;;;;;4.15;3.75;;;;;;;28.93;34.78;99734.06;5042748;28;20233;-80
2022/07/24 09:46:27;;;;;;;4.00;3.70;;;;;;;29.08;33.95;99738.94;5023307;28;20230;-82
2022/07/24 09:48:57;;;;;;;4.05;3.75;;;;;;;28.97;34.66;99733.06;5005615;28;20716;-80
2022/07/24 09:51:26;;;;;;;4.10;3.80;;;;;;;28.75;34.91;99733.41;5016140;28;20231;-81
2022/07/24 09:53:55;;;;;;;3.88;3.60;;;;;;;28.94;35.46;99738.41;5027879;28;20258;-81
2022/07/24 09:56:23;;;;;;;3.90;3.70;;;;;;;28.92;33.84;99724.19;5030129;28;20233;-81
2022/07/24 09:58:52;;;;;;;3.72;3.42;;;;;;;29.00;33.88;99729.59;5022549;28;20756;-80
2022/07/24 10:01:22;;;;;;;4.22;3.92;;;;;;;28.89;34.28;99714.63;5027750;28;20731;-80
2022/07/24 10:03:51;;;;;;;4.47;4.10;;;;;;;28.93;35.05;99729.34;5016016;28;20238;-83
2022/07/24 10:06:25;;;;;;;3.90;3.60;;;;;;;28.85;35.96;99719.19;5025258;28;20226;-82
2022/07/24 10:08:53;;;;;;;4.32;3.92;;;;;;;28.97;35.91;99722.03;4984653;28;20239;-81
2022/07/24 10:11:21;;;;;;;4.60;4.20;;;;;;;28.93;36.04;99720.28;4999604;28;20314;-80
2022/07/24 10:13:49;;;;;;;4.28;3.97;;;;;;;29.09;35.73;99712.97;5023384;28;20250;-81
2022/07/24 10:16:26;;;;;;;4.50;4.18;;;;;;;29.16;34.46;99697.47;5032685;28;20313;-80
2022/07/24 10:19:00;;;;;;;4.15;3.85;;;;;;;29.04;35.88;99707.66;5016603;28;20245;-81
2022/07/24 10:21:30;;;;;;;4.60;4.20;;;;;;;29.28;36.07;99703.03;5023235;28;20764;-81
2022/07/24 10:24:03;;;;;;;4.45;4.07;;;;;;;29.43;34.60;99700.78;5020991;28;20693;-80
2022/07/24 10:26:40;;;;;;;4.85;4.45;;;;;;;29.63;35.14;99703.44;5020777;28;20604;-81
2022/07/24 10:29:12;;;;;;;4.90;4.47;;;;;;;29.67;33.86;99704.38;5025907;28;20230;-80
2022/07/24 10:31:50;;;;;;;4.35;4.05;;;;;;;29.57;34.11;99698.50;5016820;28;20230;-81
2022/07/24 10:34:46;;;;;;;4.13;3.83;;;;;;;29.83;34.62;99693.44;5027747;28;20234;-80
2022/07/24 10:37:32;;;;;;;4.18;3.88;;;;;;;29.84;33.75;99685.94;5071918;28;20660;-82
2022/07/24 10:40:07;;;;;;;5.30;4.00;;;;;;;30.00;33.51;99686.91;5044253;28;20287;-80
2022/07/24 10:43:08;;;;;;;4.50;4.20;;;;;;;30.04;34.18;99691.38;5042650;28;20242;-81
2022/07/24 10:45:40;;;;;;;4.35;3.80;;;;;;;29.95;34.11;99692.66;5023261;28;20615;-80
2022/07/24 10:48:25;;;;;;;4.47;3.97;;;;;;;30.26;34.13;99687.31;5026368;28;20331;-81
2022/07/24 10:51:02;;;;;;;4.40;4.10;;;;;;;30.15;32.11;99681.44;5044758;28;20229;-81
2022/07/24 10:53:36;;;;;;;4.30;3.92;;;;;;;29.95;32.62;99685.19;5025553;28;20728;-81
2022/07/24 10:56:27;;;;;;;4.07;3.78;;;;;;;29.86;33.41;99675.38;5017736;28;20226;-80
2022/07/24 10:58:55;;;;;;;4.47;4.03;;;;;;;30.04;32.78;99674.81;5029540;28;20283;-80
2022/07/24 11:01:47;;;;;;;4.00;3.70;;;;;;;30.31;32.26;99680.72;5038733;28;20259;-81
2022/07/24 11:04:34;;;;;;;4.00;3.65;;;;;;;30.47;32.38;99665.84;5028429;28;20234;-81
2022/07/24 11:07:12;;;;;;;4.25;3.85;;;;;;;30.65;32.75;99666.38;5026435;28;20230;-81
2022/07/24 11:10:07;;;;;;;4.22;3.72;;;;;;;30.28;32.27;99670.38;5026262;28;20227;-82
2022/07/24 11:12:44;;;;;;;3.72;3.53;;;;;;;30.25;31.93;99660.00;5028550;28;20280;-83
2022/07/24 11:18:13;;;;;;;4.32;3.80;;;;;;;30.41;32.04;99658.13;5027493;28;20241;-83
2022/07/24 11:20:40;;;;;;;4.03;3.70;;;;;;;30.50;31.10;99645.81;5050338;28;20233;-82
2022/07/24 11:23:20;;;;;;;3.63;3.40;;;;;;;30.55;31.03;99651.09;5050656;28;20249;-80
2022/07/24 11:25:49;;;;;;;3.80;3.50;;;;;;;30.53;30.01;99652.59;5030454;28;20278;-80
2022/07/24 11:28:16;;;;;;;3.97;3.53;;;;;;;30.67;29.53;99644.69;5052783;28;20229;-83
2022/07/24 11:30:45;;;;;;;3.92;3.60;;;;;;;30.80;30.71;99654.53;5048504;28;20248;-82
2022/07/24 11:33:17;;;;;;;3.53;3.30;;;;;;;31.00;29.24;99659.03;5014693;28;20315;-82
2022/07/24 11:35:44;;;;;;;3.67;3.47;;;;;;;30.95;30.12;99642.69;5048816;28;20704;-82
2022/07/24 11:38:11;;;;;;;4.18;3.55;;;;;;;31.12;30.26;99643.56;5050087;28;20630;-81